Brockway, Montana
Current Conditions -  °F | °C
As of 7:15 PM on Monday 22 Dec 2014 (Local Time) from KGDV Reporting Station
Scattered Clouds Scattered Clouds  
Wind Chill:   Ceiling: Unl
Heat Index: 23°   Visibility: 7mi
Dew Point: 19°   Wind: 20mph
Humidity: 86%   Direction: 320°NW
Pressure: 29.88"   Gusts: 26mph
Location:  47.3°N, 105.77°W
Report Text: KGDV 230215Z AUTO 32017G23KT 7SM FEW026 SCT031 M05/M07 A2988 RMK AO1
Loading
Personal Weather Stations






























Interactive Weather Map New forecast layout! Learn more

10-Day Weather Forecast

Advertisements
Track Severe Weather on mobile